Time;durP1;ratioP1;P1;durP2;ratioP2;P2;SDS_P1;SDS_P2;PMS_P1;PMS_P2;Temp;Humidity;BMP_temperature;BMP_pressure;BME280_temperature;BME280_humidity;BME280_pressure;Samples;Min_cycle;Max_cycle;Signal;HPM_P1;HPM_P2
2023/08/24 00:00:32;;;;;;;10.05;8.00;;;;;;;;;;5042941;28;20037;-79
2023/08/24 00:02:57;;;;;;;12.68;7.93;;;;;;;;;;5019599;28;20052;-80
2023/08/24 00:05:23;;;;;;;12.90;7.78;;;;;;;;;;5037410;28;20049;-82
2023/08/24 00:07:48;;;;;;;16.88;8.50;;;;;;;;;;5019852;28;20037;-79
2023/08/24 00:10:14;;;;;;;12.43;8.13;;;;;;;;;;5036169;28;20686;-79
2023/08/24 00:12:39;;;;;;;11.43;8.10;;;;;;;;;;5035841;28;20053;-82
2023/08/24 00:15:08;;;;;;;13.15;8.77;;;;;;;;;;5019226;28;20058;-82
2023/08/24 00:17:34;;;;;;;9.73;8.10;;;;;;;;;;5037744;28;20040;-81
2023/08/24 00:19:59;;;;;;;12.05;7.95;;;;;;;;;;5047787;28;20547;-81
2023/08/24 00:22:24;;;;;;;16.38;7.70;;;;;;;;;;5019334;28;20032;-81
2023/08/24 00:24:50;;;;;;;11.13;7.70;;;;;;;;;;5035201;28;20037;-82
2023/08/24 00:27:15;;;;;;;13.38;8.75;;;;;;;;;;5016743;28;20021;-80
2023/08/24 00:29:40;;;;;;;11.82;9.80;;;;;;;;;;5036334;28;20021;-82
2023/08/24 00:32:06;;;;;;;14.23;8.80;;;;;;;;;;5036783;28;20446;-82
2023/08/24 00:34:32;;;;;;;9.95;8.52;;;;;;;;;;5035976;28;20136;-82
2023/08/24 00:36:57;;;;;;;14.63;8.30;;;;;;;;;;5017740;28;20033;-80
2023/08/24 00:39:22;;;;;;;10.32;8.48;;;;;;;;;;5035285;28;20065;-81
2023/08/24 00:41:47;;;;;;;11.38;8.10;;;;;;;;;;5035637;28;20022;-81
2023/08/24 00:44:13;;;;;;;14.60;9.68;;;;;;;;;;5034876;28;20413;-81
2023/08/24 00:46:38;;;;;;;13.90;9.88;;;;;;;;;;5036041;28;20030;-79
2023/08/24 00:49:04;;;;;;;13.13;10.80;;;;;;;;;;5036012;28;20037;-83
2023/08/24 00:51:29;;;;;;;11.27;9.15;;;;;;;;;;5036386;28;20406;-82
2023/08/24 00:53:57;;;;;;;14.85;9.45;;;;;;;;;;5036620;28;20033;-82
2023/08/24 00:56:24;;;;;;;14.55;9.50;;;;;;;;;;5035212;28;20029;-81
2023/08/24 00:58:50;;;;;;;16.88;9.35;;;;;;;;;;5036614;28;20037;-83
2023/08/24 01:01:18;;;;;;;15.60;9.90;;;;;;;;;;5036672;28;20034;-82
2023/08/24 01:03:43;;;;;;;17.05;12.10;;;;;;;;;;5027366;28;20516;-82
2023/08/24 01:06:08;;;;;;;16.35;12.55;;;;;;;;;;5035842;28;20036;-81
2023/08/24 01:08:34;;;;;;;17.65;12.77;;;;;;;;;;5036963;28;20594;-81
2023/08/24 01:11:14;;;;;;;20.02;12.25;;;;;;;;;;5035887;28;20045;-81
2023/08/24 01:14:09;;;;;;;14.95;11.75;;;;;;;;;;5018581;28;20044;-82
2023/08/24 01:16:40;;;;;;;12.57;11.15;;;;;;;;;;5036320;28;20040;-83
2023/08/24 01:19:10;;;;;;;16.02;10.77;;;;;;;;;;5019074;28;20033;-83
2023/08/24 01:21:36;;;;;;;15.82;12.05;;;;;;;;;;5036374;28;20045;-82
2023/08/24 01:24:13;;;;;;;14.18;11.73;;;;;;;;;;5018145;28;20052;-82
2023/08/24 01:26:40;;;;;;;16.13;11.80;;;;;;;;;;5041312;28;20561;-83
2023/08/24 01:29:07;;;;;;;18.33;11.38;;;;;;;;;;5021674;28;20048;-82
2023/08/24 01:31:32;;;;;;;14.73;10.63;;;;;;;;;;5038980;28;20502;-84
2023/08/24 01:33:58;;;;;;;13.13;11.75;;;;;;;;;;5038969;28;20178;-80
2023/08/24 01:36:24;;;;;;;16.15;11.77;;;;;;;;;;5038482;28;20104;-81
2023/08/24 01:39:13;;;;;;;12.30;10.43;;;;;;;;;;5039552;28;20036;-82
2023/08/24 01:41:42;;;;;;;14.50;11.07;;;;;;;;;;5035831;28;20056;-80
2023/08/24 01:44:12;;;;;;;22.15;12.95;;;;;;;;;;5038945;28;20057;-81
2023/08/24 01:46:39;;;;;;;17.88;13.48;;;;;;;;;;5021213;28;20033;-80
2023/08/24 01:49:06;;;;;;;23.70;15.38;;;;;;;;;;5038711;28;20041;-78
2023/08/24 01:51:34;;;;;;;22.95;16.90;;;;;;;;;;5039098;28;20055;-82
2023/08/24 01:54:00;;;;;;;24.60;16.60;;;;;;;;;;5022329;28;20128;-80
2023/08/24 01:56:25;;;;;;;19.95;14.65;;;;;;;;;;5044955;28;20045;-82
2023/08/24 01:58:50;;;;;;;15.20;11.80;;;;;;;;;;5058409;28;20037;-82
2023/08/24 02:01:15;;;;;;;12.85;11.15;;;;;;;;;;5038253;28;20114;-82
2023/08/24 02:03:41;;;;;;;15.93;12.30;;;;;;;;;;5038101;28;20041;-80
2023/08/24 02:06:07;;;;;;;16.20;12.13;;;;;;;;;;5038257;28;20433;-81
2023/08/24 02:08:32;;;;;;;22.10;11.90;;;;;;;;;;5054078;28;20442;-83
2023/08/24 02:10:57;;;;;;;15.65;12.07;;;;;;;;;;5038135;28;20039;-80
2023/08/24 02:13:23;;;;;;;21.13;15.00;;;;;;;;;;5038749;28;20045;-81
2023/08/24 02:15:48;;;;;;;21.50;14.10;;;;;;;;;;5037410;28;20068;-80
2023/08/24 02:18:13;;;;;;;20.40;14.32;;;;;;;;;;5037778;28;20203;-83
2023/08/24 02:20:39;;;;;;;25.30;13.90;;;;;;;;;;5038689;28;20483;-79
2023/08/24 02:23:05;;;;;;;20.85;13.38;;;;;;;;;;5038620;28;20038;-81
2023/08/24 02:25:30;;;;;;;20.85;13.60;;;;;;;;;;5037996;28;20399;-79
2023/08/24 02:27:56;;;;;;;16.15;13.57;;;;;;;;;;5019535;28;20049;-81
2023/08/24 02:30:31;;;;;;;18.67;15.13;;;;;;;;;;5038143;28;20032;-81
2023/08/24 02:32:57;;;;;;;20.63;15.40;;;;;;;;;;5022698;28;20025;-81
2023/08/24 02:35:22;;;;;;;22.30;15.90;;;;;;;;;;5040771;28;20574;-81
2023/08/24 02:37:49;;;;;;;19.92;16.02;;;;;;;;;;5038877;28;20089;-80
2023/08/24 02:40:14;;;;;;;21.05;16.45;;;;;;;;;;5039052;28;20037;-80
2023/08/24 02:42:39;;;;;;;25.33;17.00;;;;;;;;;;5037738;28;20040;-81
2023/08/24 02:45:05;;;;;;;26.25;16.38;;;;;;;;;;5042406;28;20041;-81
2023/08/24 02:47:30;;;;;;;19.80;15.70;;;;;;;;;;5051840;28;20382;-79
2023/08/24 02:49:56;;;;;;;21.02;15.30;;;;;;;;;;5036777;28;20092;-80
2023/08/24 02:52:21;;;;;;;29.33;15.73;;;;;;;;;;5039598;28;20122;-80
2023/08/24 02:54:46;;;;;;;24.88;15.55;;;;;;;;;;5039206;28;20052;-79
2023/08/24 02:57:12;;;;;;;20.23;14.55;;;;;;;;;;5040119;28;20029;-80
2023/08/24 02:59:37;;;;;;;23.15;16.13;;;;;;;;;;5041708;28;20685;-79
2023/08/24 03:02:03;;;;;;;21.92;15.15;;;;;;;;;;5038091;28;20040;-80
2023/08/24 03:04:29;;;;;;;20.13;13.98;;;;;;;;;;5023797;28;20053;-80
2023/08/24 03:06:54;;;;;;;14.45;11.90;;;;;;;;;;5040891;28;20034;-80
2023/08/24 03:09:22;;;;;;;28.40;12.57;;;;;;;;;;5040253;28;20094;-79
2023/08/24 03:11:47;;;;;;;21.00;14.60;;;;;;;;;;5039436;28;20025;-81
2023/08/24 03:14:13;;;;;;;28.55;16.33;;;;;;;;;;5038817;28;20043;-78
2023/08/24 03:16:39;;;;;;;25.88;16.35;;;;;;;;;;5037612;28;20033;-81
2023/08/24 03:19:04;;;;;;;26.15;16.38;;;;;;;;;;5038724;28;20041;-81
2023/08/24 03:21:30;;;;;;;20.88;14.70;;;;;;;;;;5042107;28;20042;-81
2023/08/24 03:23:55;;;;;;;25.17;18.05;;;;;;;;;;5039538;28;20022;-81
2023/08/24 03:26:23;;;;;;;28.17;18.48;;;;;;;;;;5020985;28;20030;-80
2023/08/24 03:28:48;;;;;;;27.02;16.33;;;;;;;;;;5021054;28;20293;-80
2023/08/24 03:31:13;;;;;;;24.38;17.15;;;;;;;;;;5035614;28;20048;-81
2023/08/24 03:33:39;;;;;;;28.50;15.88;;;;;;;;;;5036299;28;20041;-79
2023/08/24 03:36:04;;;;;;;22.92;16.77;;;;;;;;;;5018241;28;20029;-81
2023/08/24 03:38:29;;;;;;;24.05;16.75;;;;;;;;;;5036887;28;20040;-81
2023/08/24 03:41:02;;;;;;;22.08;17.02;;;;;;;;;;5035359;28;20041;-79
2023/08/24 03:43:31;;;;;;;25.00;17.00;;;;;;;;;;5034598;28;20045;-81
2023/08/24 03:45:56;;;;;;;24.02;17.42;;;;;;;;;;5018258;28;20061;-81
2023/08/24 03:48:22;;;;;;;31.95;18.45;;;;;;;;;;5035841;28;20187;-81
2023/08/24 03:50:47;;;;;;;23.95;17.52;;;;;;;;;;5036242;28;20445;-81
2023/08/24 03:53:12;;;;;;;27.38;18.15;;;;;;;;;;5038364;28;20052;-79
2023/08/24 03:55:38;;;;;;;24.73;18.15;;;;;;;;;;5045800;28;20041;-80
2023/08/24 03:58:03;;;;;;;28.52;18.40;;;;;;;;;;5051679;28;20037;-79
2023/08/24 04:00:28;;;;;;;23.40;17.05;;;;;;;;;;5041126;28;20111;-79
2023/08/24 04:02:54;;;;;;;23.02;16.63;;;;;;;;;;5061831;28;20111;-79
2023/08/24 04:05:19;;;;;;;19.75;17.27;;;;;;;;;;5040941;28;20093;-81
2023/08/24 04:07:44;;;;;;;21.80;17.05;;;;;;;;;;5040961;28;20187;-78
2023/08/24 04:10:11;;;;;;;21.58;17.08;;;;;;;;;;5039354;28;20112;-80
2023/08/24 04:12:36;;;;;;;27.77;18.90;;;;;;;;;;5040227;28;20037;-80
2023/08/24 04:15:02;;;;;;;26.02;18.83;;;;;;;;;;5041386;28;20036;-80
2023/08/24 04:17:28;;;;;;;24.63;18.27;;;;;;;;;;5032984;28;20033;-82
2023/08/24 04:19:59;;;;;;;26.35;18.08;;;;;;;;;;5036462;28;20057;-81
2023/08/24 04:22:24;;;;;;;25.30;18.55;;;;;;;;;;5016652;28;20095;-83
2023/08/24 04:24:50;;;;;;;26.05;19.00;;;;;;;;;;5014890;28;20063;-84
2023/08/24 04:27:15;;;;;;;25.33;17.75;;;;;;;;;;5019890;28;20025;-80
2023/08/24 04:29:40;;;;;;;26.73;19.80;;;;;;;;;;5033450;28;20044;-84
2023/08/24 04:32:06;;;;;;;27.80;20.50;;;;;;;;;;5037586;28;20029;-80
2023/08/24 04:34:31;;;;;;;34.97;21.42;;;;;;;;;;5037120;28;20064;-84
2023/08/24 04:36:56;;;;;;;27.77;19.80;;;;;;;;;;5018316;28;20037;-84
2023/08/24 04:39:21;;;;;;;27.58;19.60;;;;;;;;;;5034311;28;20056;-82
2023/08/24 04:41:50;;;;;;;27.02;18.02;;;;;;;;;;5035761;28;20242;-84
2023/08/24 04:44:16;;;;;;;30.17;18.88;;;;;;;;;;5033851;28;20101;-85
2023/08/24 04:46:41;;;;;;;26.42;19.25;;;;;;;;;;5036582;28;20049;-81
2023/08/24 04:49:06;;;;;;;25.02;17.73;;;;;;;;;;5037764;28;20037;-82
2023/08/24 04:51:31;;;;;;;22.67;16.27;;;;;;;;;;5036638;28;20095;-84
2023/08/24 04:53:57;;;;;;;27.88;16.98;;;;;;;;;;5066715;23;20037;-83
2023/08/24 04:56:22;;;;;;;21.25;16.35;;;;;;;;;;5037740;28;20036;-82
2023/08/24 04:58:58;;;;;;;20.52;15.27;;;;;;;;;;5038485;28;20067;-82
2023/08/24 05:01:27;;;;;;;25.95;15.20;;;;;;;;;;5059989;28;20057;-82
2023/08/24 05:03:53;;;;;;;22.30;15.27;;;;;;;;;;5060287;28;20062;-82
2023/08/24 05:06:19;;;;;;;22.17;16.88;;;;;;;;;;5059750;28;20029;-81
2023/08/24 05:08:45;;;;;;;20.75;14.73;;;;;;;;;;5029278;28;20084;-82
2023/08/24 05:11:13;;;;;;;23.25;15.65;;;;;;;;;;5040202;28;20072;-82
2023/08/24 05:13:39;;;;;;;18.70;14.15;;;;;;;;;;5039548;28;20045;-81
2023/08/24 05:16:04;;;;;;;13.65;11.93;;;;;;;;;;5047899;28;20399;-82
2023/08/24 05:18:29;;;;;;;15.68;13.32;;;;;;;;;;5058745;28;20033;-81
2023/08/24 05:20:55;;;;;;;15.25;13.55;;;;;;;;;;5041678;28;20025;-80
2023/08/24 05:23:20;;;;;;;16.65;12.27;;;;;;;;;;5057425;28;20033;-80
2023/08/24 05:25:45;;;;;;;12.35;10.65;;;;;;;;;;5040190;28;20513;-80
2023/08/24 05:28:10;;;;;;;15.75;10.75;;;;;;;;;;5057109;28;20033;-79
2023/08/24 05:30:36;;;;;;;11.48;10.27;;;;;;;;;;5058296;28;20071;-81
2023/08/24 05:33:01;;;;;;;14.13;10.63;;;;;;;;;;5057788;28;20088;-80
2023/08/24 05:35:27;;;;;;;13.18;9.85;;;;;;;;;;5058313;28;20051;-82
2023/08/24 05:37:52;;;;;;;18.02;11.25;;;;;;;;;;5040754;28;20029;-83
2023/08/24 05:40:18;;;;;;;20.20;10.63;;;;;;;;;;5040718;28;20045;-80
2023/08/24 05:42:43;;;;;;;17.88;10.60;;;;;;;;;;5041018;28;20037;-81
2023/08/24 05:45:09;;;;;;;17.48;10.20;;;;;;;;;;5041136;28;20021;-80
2023/08/24 05:47:34;;;;;;;12.40;9.48;;;;;;;;;;5059684;28;20494;-81
2023/08/24 05:49:59;;;;;;;15.95;8.98;;;;;;;;;;5059381;28;20116;-81
2023/08/24 05:52:25;;;;;;;9.77;8.70;;;;;;;;;;5059095;28;20098;-82
2023/08/24 05:54:50;;;;;;;10.82;8.50;;;;;;;;;;5041647;28;20033;-81
2023/08/24 05:57:16;;;;;;;12.82;7.82;;;;;;;;;;5060021;28;20072;-82
2023/08/24 05:59:41;;;;;;;10.18;7.53;;;;;;;;;;5056274;28;20037;-81
2023/08/24 06:02:06;;;;;;;15.00;7.53;;;;;;;;;;5022414;28;20075;-81
2023/08/24 06:04:31;;;;;;;9.05;7.28;;;;;;;;;;5054103;28;20041;-82
2023/08/24 06:06:57;;;;;;;9.43;7.25;;;;;;;;;;5059098;28;20128;-82
2023/08/24 06:09:22;;;;;;;7.38;6.45;;;;;;;;;;5058271;28;20045;-80
2023/08/24 06:11:47;;;;;;;11.10;7.20;;;;;;;;;;5054663;28;20434;-80
2023/08/24 06:14:13;;;;;;;9.90;6.90;;;;;;;;;;5037227;28;20131;-80
2023/08/24 06:16:38;;;;;;;11.57;7.60;;;;;;;;;;5058042;28;20488;-83
2023/08/24 06:19:03;;;;;;;8.02;6.32;;;;;;;;;;5037706;28;20033;-82
2023/08/24 06:21:29;;;;;;;11.13;6.10;;;;;;;;;;5057451;28;20521;-82
2023/08/24 06:23:54;;;;;;;9.68;6.53;;;;;;;;;;5040643;28;20112;-83
2023/08/24 06:26:19;;;;;;;8.50;6.00;;;;;;;;;;5046324;28;20040;-81
2023/08/24 06:28:45;;;;;;;6.43;5.78;;;;;;;;;;5035891;28;20057;-81
2023/08/24 06:31:10;;;;;;;8.52;6.03;;;;;;;;;;5038969;28;20039;-80
2023/08/24 06:33:36;;;;;;;6.22;5.60;;;;;;;;;;5055302;28;20059;-80
2023/08/24 06:36:05;;;;;;;9.23;5.57;;;;;;;;;;5057273;28;20024;-81
2023/08/24 06:38:30;;;;;;;9.85;5.32;;;;;;;;;;5036602;28;20037;-81
2023/08/24 06:40:57;;;;;;;12.88;6.10;;;;;;;;;;5029291;28;20074;-82
2023/08/24 06:43:23;;;;;;;10.95;5.10;;;;;;;;;;5055185;28;20033;-80
2023/08/24 06:45:48;;;;;;;6.13;5.35;;;;;;;;;;5051975;28;20403;-80
2023/08/24 06:48:13;;;;;;;9.32;5.40;;;;;;;;;;5052781;28;20135;-81
2023/08/24 06:50:39;;;;;;;12.10;5.30;;;;;;;;;;5036759;28;20025;-81
2023/08/24 06:53:04;;;;;;;12.77;5.57;;;;;;;;;;5032288;28;20098;-80
2023/08/24 06:55:30;;;;;;;9.00;5.53;;;;;;;;;;5039028;28;20062;-81
2023/08/24 06:57:56;;;;;;;8.50;6.30;;;;;;;;;;5038166;28;20044;-81
2023/08/24 07:00:21;;;;;;;9.23;6.05;;;;;;;;;;5027986;28;20053;-80
2023/08/24 07:02:48;;;;;;;7.53;5.78;;;;;;;;;;5033691;28;20036;-80
2023/08/24 07:05:14;;;;;;;11.05;6.15;;;;;;;;;;5034669;28;20057;-80
2023/08/24 07:07:41;;;;;;;9.00;6.05;;;;;;;;;;5038146;28;20095;-80
2023/08/24 07:10:06;;;;;;;7.80;6.50;;;;;;;;;;5030258;28;20175;-80
2023/08/24 07:12:32;;;;;;;8.80;6.32;;;;;;;;;;5037206;28;20091;-80
2023/08/24 07:14:57;;;;;;;6.68;5.93;;;;;;;;;;5049412;28;20021;-81
2023/08/24 07:17:23;;;;;;;7.75;5.90;;;;;;;;;;5053725;28;20491;-81
2023/08/24 07:19:48;;;;;;;8.43;6.13;;;;;;;;;;5035940;28;20037;-82
2023/08/24 07:22:13;;;;;;;6.45;5.45;;;;;;;;;;5035073;28;20591;-81
2023/08/24 07:24:39;;;;;;;9.85;5.68;;;;;;;;;;5037147;28;20052;-81
2023/08/24 07:27:04;;;;;;;14.45;6.05;;;;;;;;;;5037789;28;20021;-80
2023/08/24 07:29:30;;;;;;;8.65;5.05;;;;;;;;;;5031795;28;20381;-81
2023/08/24 07:31:55;;;;;;;9.13;5.47;;;;;;;;;;5038264;28;20041;-80
2023/08/24 07:34:22;;;;;;;8.93;5.25;;;;;;;;;;5030274;28;20029;-81
2023/08/24 07:36:48;;;;;;;9.45;5.43;;;;;;;;;;5037770;28;20549;-80
2023/08/24 07:39:15;;;;;;;8.38;5.40;;;;;;;;;;5038180;28;20059;-80
2023/08/24 07:41:41;;;;;;;13.02;5.72;;;;;;;;;;5055047;28;20032;-81
2023/08/24 07:44:06;;;;;;;13.98;5.65;;;;;;;;;;5037600;28;20116;-81
2023/08/24 07:46:32;;;;;;;11.57;5.55;;;;;;;;;;5038818;28;20049;-83
2023/08/24 07:48:57;;;;;;;11.80;5.50;;;;;;;;;;5035298;28;20041;-82
2023/08/24 07:51:22;;;;;;;8.48;5.00;;;;;;;;;;5049073;28;20041;-81
2023/08/24 07:53:49;;;;;;;9.88;5.07;;;;;;;;;;5037567;28;20056;-82
2023/08/24 07:56:14;;;;;;;5.72;4.63;;;;;;;;;;5038168;28;20025;-82
2023/08/24 07:58:39;;;;;;;10.55;5.25;;;;;;;;;;5037466;28;20355;-82
2023/08/24 08:01:04;;;;;;;12.95;5.38;;;;;;;;;;5030440;28;20033;-81
2023/08/24 08:03:30;;;;;;;12.52;4.70;;;;;;;;;;5037332;28;20464;-82
2023/08/24 08:05:56;;;;;;;11.70;5.68;;;;;;;;;;5055687;28;20029;-81
2023/08/24 08:08:22;;;;;;;19.15;5.03;;;;;;;;;;5037605;28;20091;-81
2023/08/24 08:10:47;;;;;;;6.85;4.47;;;;;;;;;;5038395;28;20105;-80
2023/08/24 08:13:13;;;;;;;8.45;4.93;;;;;;;;;;5036666;28;20053;-81
2023/08/24 08:15:39;;;;;;;11.73;5.32;;;;;;;;;;5048175;28;20033;-80
2023/08/24 08:18:05;;;;;;;11.85;4.93;;;;;;;;;;5051139;28;20020;-80
2023/08/24 08:20:31;;;;;;;6.43;4.25;;;;;;;;;;5037905;28;20116;-81
2023/08/24 08:22:56;;;;;;;12.63;5.65;;;;;;;;;;5047496;28;20060;-77
2023/08/24 08:25:22;;;;;;;9.90;4.70;;;;;;;;;;5046002;28;20736;-78
2023/08/24 08:27:48;;;;;;;7.75;4.60;;;;;;;;;;5044694;28;20041;-78
2023/08/24 08:30:14;;;;;;;14.15;4.50;;;;;;;;;;5047066;28;20479;-78
2023/08/24 08:32:39;;;;;;;12.15;4.55;;;;;;;;;;5041712;28;20479;-79
2023/08/24 08:35:05;;;;;;;11.20;5.00;;;;;;;;;;5027357;28;20071;-78
2023/08/24 08:37:32;;;;;;;10.23;4.55;;;;;;;;;;5030778;28;20112;-79
2023/08/24 08:39:57;;;;;;;10.20;4.78;;;;;;;;;;5043833;28;20537;-79
2023/08/24 08:42:22;;;;;;;11.45;5.20;;;;;;;;;;5043915;28;20052;-78
2023/08/24 08:44:49;;;;;;;14.45;4.90;;;;;;;;;;5044107;28;20020;-80
2023/08/24 08:47:15;;;;;;;10.95;5.07;;;;;;;;;;5047288;28;20432;-80
2023/08/24 08:49:42;;;;;;;9.50;4.78;;;;;;;;;;5024325;28;20111;-78
2023/08/24 08:52:09;;;;;;;11.70;5.05;;;;;;;;;;5022461;28;20061;-78
2023/08/24 08:54:34;;;;;;;9.63;4.35;;;;;;;;;;5042689;28;20037;-78
2023/08/24 08:57:01;;;;;;;14.98;5.18;;;;;;;;;;5044480;28;20025;-77
2023/08/24 08:59:30;;;;;;;11.70;4.97;;;;;;;;;;5045181;28;20517;-77
2023/08/24 09:01:56;;;;;;;11.00;4.57;;;;;;;;;;5046555;28;20037;-78
2023/08/24 09:04:24;;;;;;;12.10;4.38;;;;;;;;;;5041520;28;20116;-80
2023/08/24 09:06:49;;;;;;;8.65;4.30;;;;;;;;;;5046300;28;20516;-78
2023/08/24 09:09:15;;;;;;;13.57;5.55;;;;;;;;;;5044718;28;20029;-77
2023/08/24 09:11:42;;;;;;;13.95;5.00;;;;;;;;;;5044033;28;20039;-78
2023/08/24 09:14:07;;;;;;;17.60;4.90;;;;;;;;;;5043844;28;20194;-78
2023/08/24 09:16:32;;;;;;;9.48;4.97;;;;;;;;;;5042967;28;20041;-78
2023/08/24 09:18:58;;;;;;;12.07;5.47;;;;;;;;;;5044833;28;20053;-77
2023/08/24 09:21:23;;;;;;;15.15;5.45;;;;;;;;;;5044040;28;20033;-77
2023/08/24 09:23:55;;;;;;;14.05;5.05;;;;;;;;;;5036032;28;20029;-78
2023/08/24 09:26:28;;;;;;;13.43;5.43;;;;;;;;;;5043817;28;20049;-78
2023/08/24 09:28:54;;;;;;;10.93;5.73;;;;;;;;;;5026261;28;20041;-78
2023/08/24 09:31:19;;;;;;;11.88;5.40;;;;;;;;;;5045528;28;20433;-77
2023/08/24 09:33:46;;;;;;;9.27;4.97;;;;;;;;;;5044974;28;20131;-78
2023/08/24 09:36:14;;;;;;;17.58;5.25;;;;;;;;;;5040999;28;20021;-78
2023/08/24 09:38:47;;;;;;;12.52;5.30;;;;;;;;;;5048305;28;20051;-79
2023/08/24 09:41:13;;;;;;;14.40;5.15;;;;;;;;;;5046288;28;20037;-77
2023/08/24 09:43:39;;;;;;;13.15;5.32;;;;;;;;;;5046937;28;20051;-78
2023/08/24 09:46:06;;;;;;;10.50;5.30;;;;;;;;;;5045598;28;20100;-78
2023/08/24 09:48:32;;;;;;;8.23;5.05;;;;;;;;;;5050178;28;20075;-78
2023/08/24 09:51:00;;;;;;;9.95;5.30;;;;;;;;;;5048921;28;20103;-81
2023/08/24 09:53:31;;;;;;;11.23;5.07;;;;;;;;;;5046438;28;20410;-78
2023/08/24 09:56:01;;;;;;;9.70;4.85;;;;;;;;;;5047571;28;20120;-78
2023/08/24 09:58:27;;;;;;;9.15;4.68;;;;;;;;;;5048877;28;20045;-78
2023/08/24 10:00:53;;;;;;;12.60;5.18;;;;;;;;;;5047464;28;20049;-78
2023/08/24 10:03:27;;;;;;;8.05;5.22;;;;;;;;;;5038579;28;20029;-78
2023/08/24 10:05:54;;;;;;;8.85;5.03;;;;;;;;;;5044821;28;20576;-78
2023/08/24 10:08:30;;;;;;;9.00;4.88;;;;;;;;;;5044133;28;20055;-78
2023/08/24 10:10:58;;;;;;;11.82;4.93;;;;;;;;;;5048231;28;20431;-77
2023/08/24 10:13:33;;;;;;;8.77;4.97;;;;;;;;;;5046375;28;20124;-77
2023/08/24 10:16:00;;;;;;;14.52;5.03;;;;;;;;;;5044542;28;20029;-77
2023/08/24 10:18:26;;;;;;;9.18;4.95;;;;;;;;;;5047767;28;20037;-77
2023/08/24 10:20:52;;;;;;;6.13;4.75;;;;;;;;;;5030365;28;20046;-78
2023/08/24 10:23:19;;;;;;;10.30;4.53;;;;;;;;;;5046882;28;20033;-77
2023/08/24 10:25:46;;;;;;;9.70;4.80;;;;;;;;;;5048782;28;20041;-78
2023/08/24 10:28:13;;;;;;;14.88;5.10;;;;;;;;;;5029454;28;20558;-77
2023/08/24 10:30:39;;;;;;;7.97;4.70;;;;;;;;;;5028879;28;20029;-77
2023/08/24 10:33:06;;;;;;;19.13;4.72;;;;;;;;;;5048419;28;20105;-77
2023/08/24 10:35:32;;;;;;;9.00;4.85;;;;;;;;;;5049199;28;20478;-78
2023/08/24 10:37:58;;;;;;;8.27;4.78;;;;;;;;;;5047679;28;20087;-77
2023/08/24 10:40:31;;;;;;;14.23;4.60;;;;;;;;;;5030009;28;20040;-77
2023/08/24 10:42:56;;;;;;;14.68;5.35;;;;;;;;;;5029466;28;20477;-77
2023/08/24 10:45:22;;;;;;;10.70;4.38;;;;;;;;;;5048699;28;20021;-77
2023/08/24 10:47:53;;;;;;;12.30;5.18;;;;;;;;;;5046494;28;20033;-77
2023/08/24 10:50:19;;;;;;;13.80;4.93;;;;;;;;;;5047303;28;20175;-76
2023/08/24 10:52:45;;;;;;;6.80;4.07;;;;;;;;;;5048110;28;20037;-78
2023/08/24 10:55:26;;;;;;;7.22;4.15;;;;;;;;;;5053468;28;20187;-76
2023/08/24 10:57:57;;;;;;;8.90;3.78;;;;;;;;;;5052788;28;20106;-76
2023/08/24 11:00:26;;;;;;;5.07;3.33;;;;;;;;;;5054028;28;20045;-77
2023/08/24 11:02:52;;;;;;;6.35;3.35;;;;;;;;;;5054315;28;20118;-77
2023/08/24 11:05:18;;;;;;;17.35;3.83;;;;;;;;;;5054121;28;20029;-77
2023/08/24 11:07:57;;;;;;;8.38;3.60;;;;;;;;;;5053985;28;20116;-76
2023/08/24 11:10:24;;;;;;;9.35;3.58;;;;;;;;;;5053660;28;20029;-77
2023/08/24 11:13:06;;;;;;;10.60;3.40;;;;;;;;;;5035043;28;20037;-78
2023/08/24 11:15:33;;;;;;;10.85;3.50;;;;;;;;;;5035127;28;20041;-77
2023/08/24 11:18:24;;;;;;;7.80;4.95;;;;;;;;;;5054330;28;20032;-77
2023/08/24 11:20:55;;;;;;;13.50;3.63;;;;;;;;;;5035214;28;20065;-78
2023/08/24 11:23:21;;;;;;;13.77;3.90;;;;;;;;;;5052485;28;20112;-77
2023/08/24 11:25:51;;;;;;;7.90;3.67;;;;;;;;;;5053786;28;20063;-78
2023/08/24 11:28:19;;;;;;;9.73;3.85;;;;;;;;;;5053773;28;20045;-78
2023/08/24 11:30:45;;;;;;;9.23;3.67;;;;;;;;;;5050113;28;20036;-77
2023/08/24 11:33:12;;;;;;;9.85;3.47;;;;;;;;;;5034873;28;20036;-77
2023/08/24 11:35:41;;;;;;;13.48;5.03;;;;;;;;;;5052400;28;20389;-77
2023/08/24 11:38:06;;;;;;;11.25;3.90;;;;;;;;;;5052955;28;20082;-78
2023/08/24 11:40:32;;;;;;;12.95;3.85;;;;;;;;;;5035690;28;20045;-77
2023/08/24 11:42:57;;;;;;;17.52;4.18;;;;;;;;;;5052802;28;20048;-78
2023/08/24 11:45:23;;;;;;;16.45;4.25;;;;;;;;;;5052622;28;20041;-77
2023/08/24 11:47:50;;;;;;;10.48;4.35;;;;;;;;;;5053305;28;20373;-76
2023/08/24 11:50:16;;;;;;;13.15;3.92;;;;;;;;;;5052258;28;20037;-77
2023/08/24 11:52:42;;;;;;;10.32;4.30;;;;;;;;;;5033954;28;20033;-77
2023/08/24 11:55:08;;;;;;;11.10;3.88;;;;;;;;;;5051726;28;20041;-77
2023/08/24 11:57:35;;;;;;;12.48;4.53;;;;;;;;;;5051489;28;20088;-77
2023/08/24 12:00:01;;;;;;;15.45;4.32;;;;;;;;;;5052351;28;20079;-77
2023/08/24 12:02:27;;;;;;;14.32;4.53;;;;;;;;;;5052520;28;20037;-77
2023/08/24 12:04:52;;;;;;;18.88;4.70;;;;;;;;;;5051413;28;20514;-78
2023/08/24 12:07:20;;;;;;;11.00;3.63;;;;;;;;;;5052694;28;20040;-77
2023/08/24 12:09:46;;;;;;;9.85;3.97;;;;;;;;;;5052911;28;20033;-76
2023/08/24 12:12:16;;;;;;;7.03;3.70;;;;;;;;;;5034285;28;20070;-76
2023/08/24 12:14:42;;;;;;;9.13;3.90;;;;;;;;;;5035576;28;20032;-78
2023/08/24 12:17:09;;;;;;;17.90;3.75;;;;;;;;;;5052650;28;20299;-78
2023/08/24 12:19:34;;;;;;;9.63;4.10;;;;;;;;;;5053040;28;20037;-76
2023/08/24 12:21:59;;;;;;;16.50;4.20;;;;;;;;;;5034851;28;20102;-78
2023/08/24 12:24:25;;;;;;;12.25;4.00;;;;;;;;;;5052760;28;20159;-77
2023/08/24 12:26:58;;;;;;;11.60;4.20;;;;;;;;;;5053766;28;20021;-78
2023/08/24 12:29:23;;;;;;;;;;;;;;;;;;5035694;28;20040;-77
2023/08/24 12:31:48;;;;;;;18.63;5.90;;;;;;;;;;5052760;28;19913;-77
2023/08/24 12:34:15;;;;;;;14.88;4.57;;;;;;;;;;5035548;28;20044;-78
2023/08/24 12:36:42;;;;;;;27.13;5.30;;;;;;;;;;5034771;28;20511;-77
2023/08/24 12:39:12;;;;;;;12.65;4.20;;;;;;;;;;5050576;28;20083;-77
2023/08/24 12:41:37;;;;;;;17.25;4.30;;;;;;;;;;5051341;28;20024;-76
2023/08/24 12:44:05;;;;;;;16.50;3.95;;;;;;;;;;5050989;28;20041;-77
2023/08/24 12:46:43;;;;;;;12.57;4.20;;;;;;;;;;5053216;27;20401;-78
2023/08/24 12:49:08;;;;;;;13.05;3.55;;;;;;;;;;5046854;27;20063;-78
2023/08/24 12:51:33;;;;;;;19.95;3.95;;;;;;;;;;5046273;27;20044;-77
2023/08/24 12:53:59;;;;;;;20.10;4.68;;;;;;;;;;5047055;28;20052;-77
2023/08/24 12:56:24;;;;;;;16.83;4.30;;;;;;;;;;5127454;27;20034;-77
2023/08/24 12:58:49;;;;;;;17.37;3.90;;;;;;;;;;5083721;27;20756;-78
2023/08/24 13:01:14;;;;;;;16.30;3.80;;;;;;;;;;5066453;27;20271;-77
2023/08/24 13:03:40;;;;;;;23.13;3.92;;;;;;;;;;5066668;27;20044;-77
2023/08/24 13:06:06;;;;;;;13.17;4.17;;;;;;;;;;5066403;27;20123;-77
2023/08/24 13:08:31;;;;;;;14.43;3.78;;;;;;;;;;5066787;28;20263;-78
2023/08/24 13:10:57;;;;;;;19.50;4.47;;;;;;;;;;5067044;27;20075;-77
2023/08/24 13:13:22;;;;;;;22.60;4.53;;;;;;;;;;5066626;27;20085;-78
2023/08/24 13:15:50;;;;;;;18.73;4.72;;;;;;;;;;5065604;27;20110;-78
2023/08/24 13:18:17;;;;;;;17.83;4.40;;;;;;;;;;5066984;27;20025;-78
2023/08/24 13:20:42;;;;;;;23.85;4.43;;;;;;;;;;5066612;27;20029;-77
2023/08/24 13:23:07;;;;;;;24.85;5.03;;;;;;;;;;5065513;27;20033;-78
2023/08/24 13:25:33;;;;;;;23.77;5.50;;;;;;;;;;5067963;27;20032;-78
2023/08/24 13:27:58;;;;;;;21.65;4.57;;;;;;;;;;5067815;27;20040;-77
2023/08/24 13:30:23;;;;;;;25.95;5.25;;;;;;;;;;5067608;27;20032;-77
2023/08/24 13:32:49;;;;;;;22.27;4.80;;;;;;;;;;5068450;28;20046;-78
2023/08/24 13:35:14;;;;;;;21.67;4.50;;;;;;;;;;5066984;27;20120;-78
2023/08/24 13:37:39;;;;;;;25.60;4.38;;;;;;;;;;5065555;27;20286;-76
2023/08/24 13:40:07;;;;;;;32.15;5.00;;;;;;;;;;5067964;27;20037;-77
2023/08/24 13:42:32;;;;;;;18.85;4.70;;;;;;;;;;5068080;27;20040;-77
2023/08/24 13:44:57;;;;;;;22.60;4.83;;;;;;;;;;5068159;28;20029;-78
2023/08/24 13:47:23;;;;;;;23.17;4.93;;;;;;;;;;5065473;27;20268;-78
2023/08/24 13:49:48;;;;;;;23.65;4.75;;;;;;;;;;5065557;27;20039;-78
2023/08/24 13:52:14;;;;;;;21.77;4.35;;;;;;;;;;5065886;28;20025;-77
2023/08/24 13:54:39;;;;;;;30.33;5.15;;;;;;;;;;5065818;28;20051;-77
2023/08/24 13:57:05;;;;;;;27.45;5.07;;;;;;;;;;5056383;28;20025;-77
2023/08/24 13:59:30;;;;;;;27.95;4.57;;;;;;;;;;5050715;28;20104;-76
2023/08/24 14:01:55;;;;;;;27.70;4.82;;;;;;;;;;5049759;27;20128;-77
2023/08/24 14:04:21;;;;;;;20.20;4.40;;;;;;;;;;5050228;27;20060;-77
2023/08/24 14:06:48;;;;;;;27.83;4.20;;;;;;;;;;5049754;27;20432;-77
2023/08/24 14:09:13;;;;;;;25.42;3.80;;;;;;;;;;5049859;27;20265;-77
2023/08/24 14:11:39;;;;;;;27.50;4.47;;;;;;;;;;5049825;28;20112;-77
2023/08/24 14:14:04;;;;;;;24.55;4.68;;;;;;;;;;5049552;27;20398;-77
2023/08/24 14:16:29;;;;;;;34.33;4.72;;;;;;;;;;5049821;27;20033;-77
2023/08/24 14:18:55;;;;;;;26.20;4.60;;;;;;;;;;5049903;27;20040;-77
2023/08/24 14:21:20;;;;;;;30.08;4.72;;;;;;;;;;5121511;27;20030;-77
2023/08/24 14:23:46;;;;;;;27.60;4.35;;;;;;;;;;5134142;27;20061;-77